createdAt,value
2019-03-22T00:00:21.580Z,39.73
2019-03-22T00:02:47.822Z,38.53
2019-03-22T00:05:14.312Z,40.17
2019-03-22T00:07:40.666Z,40.88
2019-03-22T00:10:07.374Z,40.58
2019-03-22T00:12:33.847Z,41.95
2019-03-22T00:15:03.553Z,39.98
2019-03-22T00:17:29.814Z,39.10
2019-03-22T00:19:58.485Z,40.80
2019-03-22T00:22:24.793Z,40.48
2019-03-22T00:24:51.043Z,39.67
2019-03-22T00:27:17.483Z,38.10
2019-03-22T00:29:44.193Z,38.42
2019-03-22T00:32:10.487Z,37.42
2019-03-22T00:34:36.727Z,37.75
2019-03-22T00:37:03.022Z,38.50
2019-03-22T00:39:29.388Z,41.23
2019-03-22T00:41:55.707Z,40.60
2019-03-22T00:44:22.048Z,40.48
2019-03-22T00:46:48.292Z,35.05
2019-03-22T00:49:14.542Z,41.23
2019-03-22T00:51:40.825Z,42.73
2019-03-22T00:54:07.068Z,43.25
2019-03-22T00:56:39.971Z,41.58
2019-03-22T00:59:06.250Z,44.48
2019-03-22T01:01:32.508Z,47.03
2019-03-22T01:03:58.768Z,49.80
2019-03-22T01:06:25.099Z,51.42
2019-03-22T01:08:51.952Z,51.92
2019-03-22T01:11:18.208Z,47.23
2019-03-22T01:13:44.485Z,52.23
2019-03-22T01:16:10.846Z,52.33
2019-03-22T01:18:38.857Z,51.80
2019-03-22T01:21:05.135Z,52.17
2019-03-22T01:23:31.338Z,53.30
2019-03-22T01:25:57.567Z,51.48
2019-03-22T01:28:24.104Z,47.62
2019-03-22T01:30:53.536Z,48.65
2019-03-22T01:33:19.792Z,46.92
2019-03-22T01:35:46.097Z,48.42
2019-03-22T01:38:12.355Z,43.65
2019-03-22T01:40:38.649Z,44.38
2019-03-22T01:43:04.920Z,46.45
2019-03-22T01:45:31.331Z,43.83
2019-03-22T01:47:57.730Z,43.83
2019-03-22T01:50:24.076Z,45.45
2019-03-22T01:52:50.329Z,45.67
2019-03-22T01:55:16.910Z,45.00
2019-03-22T01:57:53.238Z,44.53
2019-03-22T02:00:17.193Z,43.02
2019-03-22T02:02:44.002Z,42.27
2019-03-22T02:05:10.456Z,41.95
2019-03-22T02:07:38.516Z,43.73
2019-03-22T02:10:07.634Z,43.28
2019-03-22T02:12:33.924Z,44.40
2019-03-22T02:15:00.369Z,44.50
2019-03-22T02:17:28.633Z,45.33
2019-03-22T02:19:54.896Z,45.20
2019-03-22T02:22:23.904Z,48.50
2019-03-22T02:24:50.083Z,48.63
2019-03-22T02:27:16.325Z,48.85
2019-03-22T02:29:45.402Z,49.18
2019-03-22T02:32:11.654Z,49.40
2019-03-22T02:34:37.917Z,49.35
2019-03-22T02:37:04.161Z,49.93
2019-03-22T02:39:30.556Z,45.03
2019-03-22T02:41:59.037Z,43.65
2019-03-22T02:44:25.431Z,44.88
2019-03-22T02:46:51.920Z,45.38
2019-03-22T02:49:18.164Z,43.42
2019-03-22T02:51:44.547Z,46.30
2019-03-22T02:54:12.398Z,46.73
2019-03-22T02:56:38.767Z,42.35
2019-03-22T02:59:05.114Z,46.18
2019-03-22T03:01:31.551Z,44.35
2019-03-22T03:03:57.905Z,46.23
2019-03-22T03:06:24.294Z,46.05
2019-03-22T03:08:50.654Z,45.48
2019-03-22T03:11:16.956Z,44.60
2019-03-22T03:13:43.273Z,41.42
2019-03-22T03:16:09.611Z,45.73
2019-03-22T03:18:35.971Z,42.93
2019-03-22T03:21:02.338Z,43.23
2019-03-22T03:23:28.705Z,46.00
2019-03-22T03:25:54.967Z,44.63
2019-03-22T03:28:35.658Z,46.23
2019-03-22T03:30:49.423Z,47.05
2019-03-22T03:33:15.675Z,44.77
2019-03-22T03:35:41.945Z,45.58
2019-03-22T03:38:08.315Z,44.15
2019-03-22T03:40:35.008Z,45.20
2019-03-22T03:43:01.505Z,44.77
2019-03-22T03:45:35.786Z,44.65
2019-03-22T03:48:07.552Z,43.13
2019-03-22T03:50:33.932Z,43.48
2019-03-22T03:53:02.368Z,43.73
2019-03-22T03:55:29.650Z,42.43
2019-03-22T03:57:56.110Z,42.40
2019-03-22T04:00:22.427Z,39.40
2019-03-22T04:02:48.710Z,44.23
2019-03-22T04:05:16.832Z,41.13
2019-03-22T04:07:43.199Z,42.00
2019-03-22T04:10:09.665Z,38.55
2019-03-22T04:12:35.926Z,40.78
2019-03-22T04:15:04.193Z,43.25
2019-03-22T04:17:30.434Z,45.70
2019-03-22T04:19:56.748Z,46.70
2019-03-22T04:22:23.003Z,46.85
2019-03-22T04:24:49.368Z,46.42
2019-03-22T04:27:15.658Z,45.48
2019-03-22T04:29:41.913Z,43.25
2019-03-22T04:32:08.279Z,42.10
2019-03-22T04:34:36.924Z,41.05
2019-03-22T04:37:03.268Z,44.18
2019-03-22T04:39:31.513Z,40.33
2019-03-22T04:41:57.781Z,39.98
2019-03-22T04:44:24.164Z,49.93
2019-03-22T04:46:50.722Z,47.93
2019-03-22T04:49:19.408Z,47.45
2019-03-22T04:51:45.838Z,52.27
2019-03-22T04:54:16.247Z,49.67
2019-03-22T04:56:43.211Z,50.98
2019-03-22T04:59:19.031Z,45.23
2019-03-22T05:01:52.576Z,47.45
2019-03-22T05:04:21.389Z,52.88
2019-03-22T05:06:50.464Z,53.40
2019-03-22T05:09:17.058Z,52.25
2019-03-22T05:11:46.308Z,50.00
2019-03-22T05:14:15.915Z,50.80
2019-03-22T05:16:45.828Z,47.78
2019-03-22T05:19:13.173Z,44.90
2019-03-22T05:21:41.107Z,50.33
2019-03-22T05:24:09.066Z,50.73
2019-03-22T05:26:37.845Z,51.08
2019-03-22T05:29:30.491Z,50.83
2019-03-22T05:31:56.729Z,49.23
2019-03-22T05:34:22.999Z,54.35
2019-03-22T05:36:49.318Z,50.30
2019-03-22T05:39:15.577Z,47.25
2019-03-22T05:41:42.021Z,49.88
2019-03-22T05:44:08.281Z,46.73
2019-03-22T05:46:34.819Z,50.85
2019-03-22T05:49:01.106Z,50.40
2019-03-22T05:51:27.477Z,48.13
2019-03-22T05:53:53.718Z,46.80
2019-03-22T05:56:20.034Z,48.30
2019-03-22T05:58:46.262Z,52.20
2019-03-22T06:01:12.747Z,53.05
2019-03-22T06:03:39.008Z,53.08
2019-03-22T06:06:05.255Z,52.80
2019-03-22T06:08:31.528Z,53.15
2019-03-22T06:10:57.807Z,48.68
2019-03-22T06:13:27.499Z,52.30
2019-03-22T06:15:55.628Z,49.48
2019-03-22T06:18:22.103Z,49.98
2019-03-22T06:20:48.388Z,45.38
2019-03-22T06:23:14.748Z,42.30
2019-03-22T06:25:41.253Z,47.33
2019-03-22T06:28:07.593Z,43.38
2019-03-22T06:30:33.849Z,48.10
2019-03-22T06:33:00.229Z,47.33
2019-03-22T06:35:26.577Z,42.03
2019-03-22T06:37:52.850Z,46.25
2019-03-22T06:40:22.020Z,46.83
2019-03-22T06:42:48.277Z,46.42
2019-03-22T06:45:14.549Z,47.27
2019-03-22T06:47:40.856Z,24.07
2019-03-22T06:50:07.523Z,31.17
2019-03-22T06:52:33.902Z,31.50
2019-03-22T06:55:00.151Z,35.63
2019-03-22T06:57:26.403Z,37.35
2019-03-22T06:59:52.855Z,55.80
2019-03-22T07:02:19.339Z,53.28
2019-03-22T07:04:45.638Z,54.03
2019-03-22T07:07:12.285Z,55.88
2019-03-22T07:09:38.550Z,53.02
2019-03-22T07:12:04.914Z,50.00
2019-03-22T07:14:31.370Z,50.08
2019-03-22T07:16:58.968Z,48.38
2019-03-22T07:19:27.172Z,49.93
2019-03-22T07:21:53.454Z,47.60
2019-03-22T07:24:19.726Z,49.25
2019-03-22T07:26:46.081Z,49.18
2019-03-22T07:29:12.364Z,49.98
2019-03-22T07:31:38.676Z,49.27
2019-03-22T07:34:05.010Z,50.85
2019-03-22T07:36:31.368Z,50.80
2019-03-22T07:38:57.711Z,53.20
2019-03-22T07:41:24.074Z,52.88
2019-03-22T07:43:50.318Z,53.52
2019-03-22T07:46:16.639Z,51.02
2019-03-22T07:48:42.883Z,52.40
2019-03-22T07:51:09.130Z,50.88
2019-03-22T07:53:35.712Z,53.75
2019-03-22T07:56:02.054Z,53.52
2019-03-22T07:58:28.510Z,54.40
2019-03-22T08:00:54.839Z,53.40
2019-03-22T08:03:21.236Z,53.33
2019-03-22T08:05:51.544Z,51.88
2019-03-22T08:08:15.504Z,51.98
2019-03-22T08:10:41.818Z,52.62
2019-03-22T08:13:08.043Z,54.38
2019-03-22T08:15:34.341Z,51.77
2019-03-22T08:18:00.701Z,52.58
2019-03-22T08:20:27.155Z,50.45
2019-03-22T08:22:53.915Z,49.93
2019-03-22T08:25:20.188Z,51.77
2019-03-22T08:27:46.567Z,53.10
2019-03-22T08:30:12.945Z,53.73
2019-03-22T08:32:39.192Z,56.28
2019-03-22T08:35:05.576Z,50.75
2019-03-22T08:37:31.983Z,50.08
2019-03-22T08:39:59.014Z,49.15
2019-03-22T08:42:25.366Z,50.15
2019-03-22T08:44:51.669Z,48.25
2019-03-22T08:47:18.213Z,44.40
2019-03-22T08:49:44.723Z,43.30
2019-03-22T08:52:11.288Z,44.45
2019-03-22T08:54:38.461Z,44.67
2019-03-22T08:57:04.819Z,41.45
2019-03-22T08:59:31.284Z,42.70
2019-03-22T09:01:58.750Z,45.55
2019-03-22T09:04:24.990Z,42.93
2019-03-22T09:06:51.260Z,44.20
2019-03-22T09:09:19.514Z,41.25
2019-03-22T09:11:45.906Z,38.10
2019-03-22T09:14:12.268Z,35.65
2019-03-22T09:16:38.764Z,40.92
2019-03-22T09:19:05.140Z,40.70
2019-03-22T09:21:31.461Z,39.95
2019-03-22T09:24:00.171Z,42.98
2019-03-22T09:26:26.546Z,43.60
2019-03-22T09:28:53.006Z,41.60
2019-03-22T09:31:21.624Z,39.73
2019-03-22T09:33:48.023Z,40.90
2019-03-22T09:36:14.280Z,40.45
2019-03-22T09:38:40.595Z,41.23
2019-03-22T09:41:06.960Z,41.95
2019-03-22T09:43:33.334Z,41.83
2019-03-22T09:45:59.960Z,41.85
2019-03-22T09:48:26.273Z,40.45
2019-03-22T09:50:52.633Z,43.33
2019-03-22T09:53:18.972Z,43.02
2019-03-22T09:55:45.496Z,45.65
2019-03-22T09:58:11.792Z,49.60
2019-03-22T10:00:38.117Z,49.75
2019-03-22T10:03:06.865Z,47.83
2019-03-22T10:05:33.095Z,46.95
2019-03-22T10:07:59.356Z,49.30
2019-03-22T10:10:25.846Z,51.23
2019-03-22T10:12:52.191Z,50.78
2019-03-22T10:15:18.594Z,48.52
2019-03-22T10:17:44.921Z,49.53
2019-03-22T10:20:11.970Z,46.70
2019-03-22T10:22:38.318Z,47.15
2019-03-22T10:25:06.350Z,44.93
2019-03-22T10:27:32.575Z,48.75
2019-03-22T10:29:58.854Z,51.15
2019-03-22T10:32:25.151Z,55.10
2019-03-22T10:34:51.511Z,48.45
2019-03-22T10:37:17.734Z,46.90
2019-03-22T10:39:44.176Z,45.50
2019-03-22T10:42:10.934Z,50.15
2019-03-22T10:44:39.351Z,46.80
2019-03-22T10:47:05.372Z,48.60
2019-03-22T10:49:31.780Z,50.98
2019-03-22T10:51:58.318Z,51.45
2019-03-22T10:54:26.651Z,50.63
2019-03-22T10:56:52.883Z,46.88
2019-03-22T10:59:19.186Z,46.48
2019-03-22T11:01:52.308Z,48.48
2019-03-22T11:04:13.631Z,47.27
2019-03-22T11:06:39.925Z,51.53
2019-03-22T11:09:07.214Z,50.48
2019-03-22T11:11:33.487Z,48.15
2019-03-22T11:13:59.753Z,47.05
2019-03-22T11:16:26.143Z,45.85
2019-03-22T11:18:52.416Z,50.38
2019-03-22T11:21:18.749Z,44.40
2019-03-22T11:23:45.101Z,46.23
2019-03-22T11:26:11.685Z,48.30
2019-03-22T11:28:38.185Z,49.03
2019-03-22T11:31:06.481Z,47.90
2019-03-22T11:33:32.735Z,48.15
2019-03-22T11:35:59.121Z,49.30
2019-03-22T11:38:27.761Z,45.50
2019-03-22T11:40:54.141Z,46.68
2019-03-22T11:43:20.352Z,49.60
2019-03-22T11:45:46.844Z,48.00
2019-03-22T11:48:13.110Z,48.10
2019-03-22T11:50:39.353Z,49.93
2019-03-22T11:53:05.852Z,48.40
2019-03-22T11:55:32.349Z,46.00
2019-03-22T11:57:58.710Z,49.67
2019-03-22T12:00:25.959Z,45.45
2019-03-22T12:02:52.531Z,47.65
2019-03-22T12:05:20.047Z,49.33
2019-03-22T12:07:46.445Z,50.95
2019-03-22T12:10:16.620Z,50.25
2019-03-22T12:12:43.106Z,46.68
2019-03-22T12:15:11.639Z,47.67
2019-03-22T12:17:38.529Z,47.17
2019-03-22T12:20:07.921Z,49.25
2019-03-22T12:22:34.312Z,51.50
2019-03-22T12:25:00.669Z,51.45
2019-03-22T12:27:36.071Z,54.15
2019-03-22T12:29:55.239Z,52.58
2019-03-22T12:32:21.513Z,51.20
2019-03-22T12:34:47.755Z,51.50
2019-03-22T12:37:14.004Z,50.38
2019-03-22T12:39:41.914Z,51.63
2019-03-22T12:42:11.305Z,51.48
2019-03-22T12:44:38.341Z,51.42
2019-03-22T12:47:04.910Z,50.95
2019-03-22T12:49:32.022Z,55.08
2019-03-22T12:51:58.610Z,51.95
2019-03-22T12:54:24.973Z,52.05
2019-03-22T12:56:51.429Z,51.88
2019-03-22T12:59:17.786Z,52.23
2019-03-22T13:01:44.142Z,49.88
2019-03-22T13:04:10.829Z,50.08
2019-03-22T13:06:37.369Z,52.95
2019-03-22T13:09:06.529Z,51.58
2019-03-22T13:11:32.894Z,51.10
2019-03-22T13:13:59.148Z,49.85
2019-03-22T13:16:25.731Z,51.85
2019-03-22T13:18:52.098Z,51.73
2019-03-22T13:21:18.391Z,48.68
2019-03-22T13:23:47.622Z,51.23
2019-03-22T13:26:13.942Z,52.62
2019-03-22T13:28:40.450Z,52.13
2019-03-22T13:31:06.796Z,51.37
2019-03-22T13:33:33.089Z,52.65
2019-03-22T13:35:59.350Z,50.08
2019-03-22T13:38:25.745Z,50.45
2019-03-22T13:40:52.059Z,51.42
2019-03-22T13:43:18.519Z,51.10
2019-03-22T13:45:44.849Z,52.00
2019-03-22T13:48:11.391Z,52.62
2019-03-22T13:50:37.660Z,52.38
2019-03-22T13:53:04.026Z,53.35
2019-03-22T13:55:30.364Z,55.20
2019-03-22T13:57:56.703Z,54.95
2019-03-22T14:00:23.090Z,52.05
2019-03-22T14:02:49.575Z,53.23
2019-03-22T14:05:15.957Z,51.68
2019-03-22T14:07:42.297Z,52.93
2019-03-22T14:10:26.373Z,53.17
2019-03-22T14:12:56.904Z,52.65
2019-03-22T14:15:23.181Z,52.53
2019-03-22T14:17:49.444Z,51.95
2019-03-22T14:20:15.710Z,53.95
2019-03-22T14:22:43.506Z,51.83
2019-03-22T14:25:09.971Z,52.53
2019-03-22T14:27:36.315Z,54.20
2019-03-22T14:30:05.055Z,51.88
2019-03-22T14:32:31.401Z,53.60
2019-03-22T14:34:57.747Z,51.70
2019-03-22T14:37:24.041Z,52.15
2019-03-22T14:39:50.428Z,49.08
2019-03-22T14:42:18.624Z,50.67
2019-03-22T14:44:44.907Z,53.58
2019-03-22T14:47:12.962Z,52.17
2019-03-22T14:49:39.405Z,53.10
2019-03-22T14:52:05.953Z,54.08
2019-03-22T14:54:32.255Z,52.93
2019-03-22T14:56:58.910Z,52.10
2019-03-22T14:59:27.347Z,51.77
2019-03-22T15:01:55.482Z,52.30
2019-03-22T15:04:21.964Z,53.87
2019-03-22T15:06:48.219Z,52.50
2019-03-22T15:09:14.477Z,50.15
2019-03-22T15:11:40.949Z,50.03
2019-03-22T15:14:12.332Z,51.53
2019-03-22T15:16:46.747Z,50.48
2019-03-22T15:19:14.903Z,51.45
2019-03-22T15:21:55.445Z,49.60
2019-03-22T15:24:40.207Z,50.03
2019-03-22T15:27:24.952Z,51.00
2019-03-22T15:30:10.837Z,50.30
2019-03-22T15:32:56.414Z,52.08
2019-03-22T15:35:27.644Z,50.17
2019-03-22T15:38:07.643Z,50.43
2019-03-22T15:40:34.075Z,50.20
2019-03-22T15:43:00.312Z,50.38
2019-03-22T15:45:26.713Z,52.05
2019-03-22T15:47:53.049Z,51.15
2019-03-22T15:50:19.602Z,49.63
2019-03-22T15:52:45.972Z,51.75
2019-03-22T15:55:12.361Z,50.92
2019-03-22T15:57:38.732Z,51.85
2019-03-22T16:00:20.113Z,52.83
2019-03-22T16:02:46.581Z,48.50
2019-03-22T16:05:13.450Z,49.42
2019-03-22T16:07:40.303Z,51.15
2019-03-22T16:10:08.479Z,49.38
2019-03-22T16:12:34.910Z,53.40
2019-03-22T16:15:01.195Z,54.58
2019-03-22T16:17:27.455Z,53.75
2019-03-22T16:19:53.850Z,54.08
2019-03-22T16:22:20.240Z,53.38
2019-03-22T16:24:46.646Z,51.98
2019-03-22T16:27:14.324Z,53.30
2019-03-22T16:29:40.615Z,52.93
2019-03-22T16:32:07.023Z,51.13
2019-03-22T16:34:33.323Z,51.63
2019-03-22T16:36:59.707Z,49.88
2019-03-22T16:39:26.008Z,54.53
2019-03-22T16:41:52.395Z,53.20
2019-03-22T16:44:18.785Z,54.38
2019-03-22T16:46:45.106Z,52.15
2019-03-22T16:49:11.715Z,54.53
2019-03-22T16:51:38.056Z,52.05
2019-03-22T16:54:04.642Z,56.13
2019-03-22T16:56:31.264Z,54.58
2019-03-22T16:58:58.247Z,52.85
2019-03-22T17:01:24.752Z,53.52
2019-03-22T17:03:51.179Z,52.67
2019-03-22T17:06:17.457Z,56.35
2019-03-22T17:08:43.807Z,49.30
2019-03-22T17:11:10.524Z,55.33
2019-03-22T17:13:36.891Z,53.92
2019-03-22T17:16:03.349Z,57.38
2019-03-22T17:18:29.628Z,53.28
2019-03-22T17:20:55.863Z,53.83
2019-03-22T17:23:22.378Z,49.35
2019-03-22T17:25:48.747Z,54.23
2019-03-22T17:28:35.038Z,51.70
2019-03-22T17:31:01.369Z,51.18
2019-03-22T17:33:29.277Z,51.83
2019-03-22T17:35:55.532Z,53.42
2019-03-22T17:38:21.955Z,52.73
2019-03-22T17:40:48.334Z,54.83
2019-03-22T17:43:14.858Z,54.23
2019-03-22T17:45:41.109Z,54.33
2019-03-22T17:48:07.351Z,53.05
2019-03-22T17:50:33.675Z,54.75
2019-03-22T17:53:00.027Z,52.58
2019-03-22T17:55:26.294Z,48.15
2019-03-22T17:57:53.885Z,49.50
2019-03-22T18:00:25.216Z,53.80
2019-03-22T18:02:51.675Z,54.00
2019-03-22T18:05:18.143Z,51.73
2019-03-22T18:07:47.584Z,54.10
2019-03-22T18:10:34.174Z,53.08
2019-03-22T18:13:00.437Z,52.55
2019-03-22T18:15:26.691Z,47.80
2019-03-22T18:17:53.448Z,50.33
2019-03-22T18:20:19.712Z,51.33
2019-03-22T18:22:46.474Z,49.05
2019-03-22T18:25:13.173Z,52.08
2019-03-22T18:27:39.560Z,53.15
2019-03-22T18:30:08.761Z,52.43
2019-03-22T18:32:35.547Z,51.53
2019-03-22T18:35:02.507Z,55.80
2019-03-22T18:37:28.687Z,52.15
2019-03-22T18:39:54.941Z,53.90
2019-03-22T18:42:21.433Z,50.45
2019-03-22T18:44:49.600Z,51.55
2019-03-22T18:47:15.896Z,50.40
2019-03-22T18:49:42.380Z,51.40
2019-03-22T18:52:08.742Z,53.85
2019-03-22T18:54:35.054Z,53.87
2019-03-22T18:57:02.053Z,54.10
2019-03-22T18:59:28.338Z,48.87
2019-03-22T19:01:54.847Z,49.50
2019-03-22T19:04:21.345Z,53.73
2019-03-22T19:06:47.618Z,52.10
2019-03-22T19:09:14.070Z,53.75
2019-03-22T19:11:40.579Z,51.68
2019-03-22T19:14:06.963Z,53.87
2019-03-22T19:16:36.392Z,52.13
2019-03-22T19:19:02.946Z,49.48
2019-03-22T19:21:29.392Z,55.75
2019-03-22T19:23:55.769Z,52.58
2019-03-22T19:26:22.253Z,51.90
2019-03-22T19:28:48.571Z,51.58
2019-03-22T19:31:14.919Z,50.43
2019-03-22T19:33:41.378Z,53.05
2019-03-22T19:36:07.915Z,51.70
2019-03-22T19:38:34.485Z,50.23
2019-03-22T19:41:00.965Z,53.83
2019-03-22T19:43:27.320Z,51.98
2019-03-22T19:45:55.963Z,52.43
2019-03-22T19:48:22.340Z,53.20
2019-03-22T19:50:48.648Z,52.23
2019-03-22T19:53:15.128Z,54.25
2019-03-22T19:55:41.514Z,53.10
2019-03-22T19:58:07.797Z,53.35
2019-03-22T20:00:34.424Z,53.68
2019-03-22T20:03:00.825Z,56.05
2019-03-22T20:05:35.360Z,55.25
2019-03-22T20:08:05.157Z,52.73
2019-03-22T20:10:38.837Z,55.30
2019-03-22T20:13:09.516Z,54.90
2019-03-22T20:15:40.804Z,60.98
2019-03-22T20:18:11.582Z,56.33
2019-03-22T20:20:43.037Z,54.85
2019-03-22T20:23:09.334Z,56.73
2019-03-22T20:25:35.938Z,56.28
2019-03-22T20:28:02.495Z,55.33
2019-03-22T20:30:28.874Z,57.95
2019-03-22T20:32:55.380Z,58.92
2019-03-22T20:35:23.670Z,57.67
2019-03-22T20:37:50.273Z,55.28
2019-03-22T20:40:19.743Z,55.40
2019-03-22T20:42:46.117Z,56.98
2019-03-22T20:45:23.268Z,59.93
2019-03-22T20:47:40.876Z,56.60
2019-03-22T20:50:08.550Z,57.05
2019-03-22T20:52:35.224Z,60.90
2019-03-22T20:55:07.804Z,57.98
2019-03-22T20:57:34.274Z,60.48
2019-03-22T21:00:00.824Z,62.43
2019-03-22T21:02:27.674Z,57.60
2019-03-22T21:04:54.191Z,61.73
2019-03-22T21:07:21.586Z,56.80
2019-03-22T21:09:48.012Z,58.85
2019-03-22T21:12:14.275Z,57.38
2019-03-22T21:14:40.588Z,57.45
2019-03-22T21:17:07.183Z,58.95
2019-03-22T21:19:33.542Z,58.30
2019-03-22T21:21:59.818Z,58.30
2019-03-22T21:24:26.076Z,58.35
2019-03-22T21:26:52.849Z,58.83
2019-03-22T21:29:19.131Z,58.70
2019-03-22T21:31:45.684Z,59.67
2019-03-22T21:34:12.353Z,60.43
2019-03-22T21:36:38.692Z,59.93
2019-03-22T21:39:05.542Z,59.55
2019-03-22T21:41:34.243Z,57.15
2019-03-22T21:44:01.962Z,59.85
2019-03-22T21:46:28.168Z,61.37
2019-03-22T21:48:54.414Z,61.88
2019-03-22T21:51:20.828Z,59.50
2019-03-22T21:53:47.178Z,58.92
2019-03-22T21:56:13.453Z,60.88
2019-03-22T21:58:39.742Z,62.40
2019-03-22T22:01:06.161Z,59.27
2019-03-22T22:03:32.427Z,60.88
2019-03-22T22:05:58.730Z,61.18
2019-03-22T22:08:26.984Z,60.20
2019-03-22T22:10:59.755Z,61.05
2019-03-22T22:13:21.551Z,62.05
2019-03-22T22:15:47.865Z,61.75
2019-03-22T22:18:14.238Z,64.22
2019-03-22T22:20:40.483Z,61.20
2019-03-22T22:23:06.993Z,60.40
2019-03-22T22:25:33.281Z,60.75
2019-03-22T22:27:59.662Z,62.30
2019-03-22T22:30:26.049Z,63.70
2019-03-22T22:32:52.342Z,61.88
2019-03-22T22:35:18.619Z,60.65
2019-03-22T22:37:44.913Z,61.48
2019-03-22T22:40:11.780Z,60.48
2019-03-22T22:42:40.819Z,62.35
2019-03-22T22:45:09.086Z,62.20
2019-03-22T22:47:35.460Z,64.25
2019-03-22T22:50:02.787Z,59.58
2019-03-22T22:52:29.345Z,64.20
2019-03-22T22:54:55.610Z,62.03
2019-03-22T22:57:23.897Z,59.73
2019-03-22T22:59:50.280Z,66.40
2019-03-22T23:02:16.547Z,61.98
2019-03-22T23:04:42.801Z,58.35
2019-03-22T23:07:09.181Z,62.13
2019-03-22T23:09:35.548Z,63.75
2019-03-22T23:12:02.127Z,62.00
2019-03-22T23:14:28.658Z,67.00
2019-03-22T23:16:56.690Z,69.53
2019-03-22T23:19:23.025Z,58.65
2019-03-22T23:21:49.321Z,66.35
2019-03-22T23:24:15.722Z,65.17
2019-03-22T23:26:42.216Z,67.55
2019-03-22T23:29:08.537Z,68.17
2019-03-22T23:31:34.883Z,62.40
2019-03-22T23:34:01.216Z,63.95
2019-03-22T23:36:27.517Z,62.65
2019-03-22T23:38:53.747Z,59.83
2019-03-22T23:41:20.107Z,55.50
2019-03-22T23:43:46.370Z,58.60
2019-03-22T23:46:12.628Z,58.38
2019-03-22T23:48:38.881Z,62.05
2019-03-22T23:51:05.624Z,60.83
2019-03-22T23:53:31.869Z,63.87
2019-03-22T23:55:58.110Z,61.50
2019-03-22T23:58:24.389Z,62.10
